sensor_id;sensor_type;location;lat;lon;timestamp;pressure;altitude;pressure_sealevel;temperature;humidity
12897;BME280;6516;35.028;32.372;2023-01-28T00:00:20;99593.13;;;15.68;64.52
12897;BME280;6516;35.028;32.372;2023-01-28T00:02:48;99594.06;;;15.67;65.49
12897;BME280;6516;35.028;32.372;2023-01-28T00:05:16;99595.91;;;15.65;65.44
12897;BME280;6516;35.028;32.372;2023-01-28T00:07:44;99582.06;;;15.77;64.11
12897;BME280;6516;35.028;32.372;2023-01-28T00:10:11;99585.28;;;15.84;63.94
12897;BME280;6516;35.028;32.372;2023-01-28T00:12:40;99589.91;;;15.97;64.49
12897;BME280;6516;35.028;32.372;2023-01-28T00:15:08;99596.72;;;16.03;64.62
12897;BME280;6516;35.028;32.372;2023-01-28T00:17:37;99603.75;;;16.04;64.25
12897;BME280;6516;35.028;32.372;2023-01-28T00:20:06;99604.63;;;16.04;64.56
12897;BME280;6516;35.028;32.372;2023-01-28T00:22:35;99614.50;;;15.84;64.81
12897;BME280;6516;35.028;32.372;2023-01-28T00:25:03;99622.19;;;15.71;66.00
12897;BME280;6516;35.028;32.372;2023-01-28T00:27:31;99612.84;;;15.63;65.82
12897;BME280;6516;35.028;32.372;2023-01-28T00:29:59;99614.69;;;15.42;67.11
12897;BME280;6516;35.028;32.372;2023-01-28T00:32:27;99618.63;;;15.34;66.62
12897;BME280;6516;35.028;32.372;2023-01-28T00:34:56;99612.84;;;15.44;65.16
12897;BME280;6516;35.028;32.372;2023-01-28T00:37:24;99614.56;;;15.45;65.00
12897;BME280;6516;35.028;32.372;2023-01-28T00:39:51;99618.28;;;15.41;62.83
12897;BME280;6516;35.028;32.372;2023-01-28T00:42:19;99619.81;;;15.47;61.27
12897;BME280;6516;35.028;32.372;2023-01-28T00:44:47;99621.31;;;15.71;59.16
12897;BME280;6516;35.028;32.372;2023-01-28T00:47:14;99621.16;;;15.55;61.62
12897;BME280;6516;35.028;32.372;2023-01-28T00:49:42;99623.16;;;15.50;60.35
12897;BME280;6516;35.028;32.372;2023-01-28T00:52:12;99625.81;;;15.50;60.10
12897;BME280;6516;35.028;32.372;2023-01-28T00:54:40;99625.53;;;15.38;61.17
12897;BME280;6516;35.028;32.372;2023-01-28T00:57:11;99632.28;;;15.25;62.73
12897;BME280;6516;35.028;32.372;2023-01-28T00:59:39;99636.59;;;15.07;62.65
12897;BME280;6516;35.028;32.372;2023-01-28T01:02:07;99637.84;;;14.99;62.80
12897;BME280;6516;35.028;32.372;2023-01-28T01:04:38;99646.16;;;14.91;62.51
12897;BME280;6516;35.028;32.372;2023-01-28T01:07:06;99655.97;;;14.89;62.92
12897;BME280;6516;35.028;32.372;2023-01-28T01:09:35;99657.09;;;14.84;63.14
12897;BME280;6516;35.028;32.372;2023-01-28T01:12:03;99657.81;;;14.87;65.41
12897;BME280;6516;35.028;32.372;2023-01-28T01:14:32;99656.22;;;14.83;65.92
12897;BME280;6516;35.028;32.372;2023-01-28T01:16:59;99661.44;;;14.85;66.65
12897;BME280;6516;35.028;32.372;2023-01-28T01:19:27;99663.84;;;14.91;68.32
12897;BME280;6516;35.028;32.372;2023-01-28T01:21:55;99664.09;;;15.05;70.95
12897;BME280;6516;35.028;32.372;2023-01-28T01:24:23;99671.66;;;15.14;72.88
12897;BME280;6516;35.028;32.372;2023-01-28T01:26:56;99673.25;;;15.18;74.97
12897;BME280;6516;35.028;32.372;2023-01-28T01:29:24;99667.81;;;15.21;77.21
12897;BME280;6516;35.028;32.372;2023-01-28T01:31:51;99664.88;;;15.27;78.81
12897;BME280;6516;35.028;32.372;2023-01-28T01:34:20;99662.81;;;15.33;79.90
12897;BME280;6516;35.028;32.372;2023-01-28T01:36:47;99664.63;;;15.33;83.82
12897;BME280;6516;35.028;32.372;2023-01-28T01:39:15;99662.31;;;15.45;86.24
12897;BME280;6516;35.028;32.372;2023-01-28T01:41:43;99658.22;;;15.57;87.96
12897;BME280;6516;35.028;32.372;2023-01-28T01:44:56;99662.53;;;15.59;88.98
12897;BME280;6516;35.028;32.372;2023-01-28T01:47:32;99666.84;;;15.62;88.10
12897;BME280;6516;35.028;32.372;2023-01-28T01:50:05;99665.38;;;15.55;87.86
12897;BME280;6516;35.028;32.372;2023-01-28T01:52:39;99667.50;;;15.48;87.71
12897;BME280;6516;35.028;32.372;2023-01-28T01:55:11;99672.84;;;15.47;87.57
12897;BME280;6516;35.028;32.372;2023-01-28T01:57:41;99680.75;;;15.48;88.33
12897;BME280;6516;35.028;32.372;2023-01-28T02:00:11;99685.19;;;15.48;88.64
12897;BME280;6516;35.028;32.372;2023-01-28T02:02:43;99683.31;;;15.50;89.98
12897;BME280;6516;35.028;32.372;2023-01-28T02:05:14;99681.72;;;15.46;89.85
12897;BME280;6516;35.028;32.372;2023-01-28T02:07:45;99680.88;;;15.45;89.67
12897;BME280;6516;35.028;32.372;2023-01-28T02:10:15;99679.06;;;15.46;89.33
12897;BME280;6516;35.028;32.372;2023-01-28T02:12:46;99684.13;;;15.52;88.39
12897;BME280;6516;35.028;32.372;2023-01-28T02:15:19;99686.91;;;15.49;87.03
12897;BME280;6516;35.028;32.372;2023-01-28T02:17:49;99689.84;;;15.43;87.55
12897;BME280;6516;35.028;32.372;2023-01-28T02:20:20;99684.81;;;15.37;87.39
12897;BME280;6516;35.028;32.372;2023-01-28T02:23:11;99680.59;;;15.31;86.45
12897;BME280;6516;35.028;32.372;2023-01-28T02:26:22;99675.66;;;15.24;85.23
12897;BME280;6516;35.028;32.372;2023-01-28T02:29:01;99675.81;;;15.19;85.13
12897;BME280;6516;35.028;32.372;2023-01-28T02:31:37;99676.88;;;15.15;84.75
12897;BME280;6516;35.028;32.372;2023-01-28T02:34:14;99686.66;;;15.15;84.39
12897;BME280;6516;35.028;32.372;2023-01-28T02:36:48;99690.53;;;15.06;84.55
12897;BME280;6516;35.028;32.372;2023-01-28T02:39:21;99695.41;;;14.97;84.80
12897;BME280;6516;35.028;32.372;2023-01-28T02:41:56;99692.22;;;14.89;85.17
12897;BME280;6516;35.028;32.372;2023-01-28T02:44:28;99700.50;;;14.81;85.15
12897;BME280;6516;35.028;32.372;2023-01-28T02:46:56;99700.94;;;14.71;85.43
12897;BME280;6516;35.028;32.372;2023-01-28T02:49:44;99705.81;;;14.60;85.76
12897;BME280;6516;35.028;32.372;2023-01-28T02:52:27;99700.13;;;14.47;86.20
12897;BME280;6516;35.028;32.372;2023-01-28T02:55:22;99699.09;;;14.30;86.66
12897;BME280;6516;35.028;32.372;2023-01-28T02:58:00;99718.22;;;14.15;87.45
12897;BME280;6516;35.028;32.372;2023-01-28T03:00:40;99716.03;;;14.03;87.91
12897;BME280;6516;35.028;32.372;2023-01-28T03:03:15;99706.72;;;13.93;88.34
12897;BME280;6516;35.028;32.372;2023-01-28T03:05:50;99711.34;;;13.88;89.08
12897;BME280;6516;35.028;32.372;2023-01-28T03:08:38;99710.41;;;13.89;89.24
12897;BME280;6516;35.028;32.372;2023-01-28T03:11:32;99708.41;;;13.95;89.05
12897;BME280;6516;35.028;32.372;2023-01-28T03:14:20;99718.78;;;14.00;88.77
12897;BME280;6516;35.028;32.372;2023-01-28T03:17:13;99730.56;;;13.93;88.38
12897;BME280;6516;35.028;32.372;2023-01-28T03:20:00;99737.84;;;13.86;88.75
12897;BME280;6516;35.028;32.372;2023-01-28T03:22:50;99736.63;;;13.72;89.37
12897;BME280;6516;35.028;32.372;2023-01-28T03:25:38;99731.63;;;13.64;89.50
12897;BME280;6516;35.028;32.372;2023-01-28T03:28:25;99744.16;;;13.59;89.82
12897;BME280;6516;35.028;32.372;2023-01-28T03:31:13;99747.94;;;13.52;90.91
12897;BME280;6516;35.028;32.372;2023-01-28T03:34:03;99744.44;;;13.52;90.82
12897;BME280;6516;35.028;32.372;2023-01-28T03:36:50;99743.53;;;13.53;92.26
12897;BME280;6516;35.028;32.372;2023-01-28T03:39:21;99740.81;;;13.54;91.81
12897;BME280;6516;35.028;32.372;2023-01-28T03:41:58;99744.41;;;13.53;91.54
12897;BME280;6516;35.028;32.372;2023-01-28T03:44:27;99741.63;;;13.56;91.73
12897;BME280;6516;35.028;32.372;2023-01-28T03:47:12;99745.00;;;13.60;91.32
12897;BME280;6516;35.028;32.372;2023-01-28T03:49:42;99743.19;;;13.62;91.37
12897;BME280;6516;35.028;32.372;2023-01-28T03:52:14;99751.81;;;13.67;91.45
12897;BME280;6516;35.028;32.372;2023-01-28T03:54:43;99750.59;;;13.75;91.49
12897;BME280;6516;35.028;32.372;2023-01-28T03:57:15;99749.53;;;13.81;91.45
12897;BME280;6516;35.028;32.372;2023-01-28T03:59:43;99751.03;;;13.88;90.80
12897;BME280;6516;35.028;32.372;2023-01-28T04:02:15;99753.38;;;13.95;90.09
12897;BME280;6516;35.028;32.372;2023-01-28T04:04:44;99752.28;;;14.01;89.81
12897;BME280;6516;35.028;32.372;2023-01-28T04:07:12;99752.22;;;14.02;89.06
12897;BME280;6516;35.028;32.372;2023-01-28T04:09:41;99753.34;;;13.97;88.81
12897;BME280;6516;35.028;32.372;2023-01-28T04:12:09;99753.44;;;13.94;89.06
12897;BME280;6516;35.028;32.372;2023-01-28T04:14:37;99754.38;;;13.93;89.15
12897;BME280;6516;35.028;32.372;2023-01-28T04:17:05;99767.53;;;13.94;89.11
12897;BME280;6516;35.028;32.372;2023-01-28T04:19:35;99767.31;;;14.00;88.51
12897;BME280;6516;35.028;32.372;2023-01-28T04:22:09;99771.72;;;14.00;87.83
12897;BME280;6516;35.028;32.372;2023-01-28T04:24:37;99772.50;;;14.03;87.80
12897;BME280;6516;35.028;32.372;2023-01-28T04:27:05;99773.59;;;13.98;87.29
12897;BME280;6516;35.028;32.372;2023-01-28T04:29:32;99771.97;;;13.94;87.43
12897;BME280;6516;35.028;32.372;2023-01-28T04:32:00;99780.25;;;13.85;87.85
12897;BME280;6516;35.028;32.372;2023-01-28T04:34:28;99784.91;;;13.78;87.99
12897;BME280;6516;35.028;32.372;2023-01-28T04:36:56;99781.47;;;13.76;87.89
12897;BME280;6516;35.028;32.372;2023-01-28T04:39:25;99780.63;;;13.74;87.08
12897;BME280;6516;35.028;32.372;2023-01-28T04:41:52;99780.13;;;13.65;87.30
12897;BME280;6516;35.028;32.372;2023-01-28T04:44:20;99782.69;;;13.66;86.88
12897;BME280;6516;35.028;32.372;2023-01-28T04:46:48;99787.31;;;13.60;86.15
12897;BME280;6516;35.028;32.372;2023-01-28T04:49:16;99781.72;;;13.69;85.45
12897;BME280;6516;35.028;32.372;2023-01-28T04:51:43;99788.75;;;13.70;84.99
12897;BME280;6516;35.028;32.372;2023-01-28T04:54:11;99785.88;;;13.76;84.52
12897;BME280;6516;35.028;32.372;2023-01-28T04:56:40;99789.78;;;13.66;84.58
12897;BME280;6516;35.028;32.372;2023-01-28T04:59:08;99798.03;;;13.57;84.87
12897;BME280;6516;35.028;32.372;2023-01-28T05:01:35;99798.31;;;13.49;85.32
12897;BME280;6516;35.028;32.372;2023-01-28T05:04:03;99810.94;;;13.41;85.89
12897;BME280;6516;35.028;32.372;2023-01-28T05:06:31;99811.91;;;13.39;86.00
12897;BME280;6516;35.028;32.372;2023-01-28T05:08:59;99815.56;;;13.35;86.21
12897;BME280;6516;35.028;32.372;2023-01-28T05:11:27;99814.75;;;13.33;86.22
12897;BME280;6516;35.028;32.372;2023-01-28T05:13:56;99812.16;;;13.31;86.32
12897;BME280;6516;35.028;32.372;2023-01-28T05:16:24;99823.28;;;13.41;85.85
12897;BME280;6516;35.028;32.372;2023-01-28T05:18:51;99824.16;;;13.41;85.27
12897;BME280;6516;35.028;32.372;2023-01-28T05:21:19;99826.63;;;13.46;84.84
12897;BME280;6516;35.028;32.372;2023-01-28T05:23:47;99830.88;;;13.50;84.18
12897;BME280;6516;35.028;32.372;2023-01-28T05:26:14;99823.88;;;13.49;83.88
12897;BME280;6516;35.028;32.372;2023-01-28T05:28:42;99825.00;;;13.42;84.19
12897;BME280;6516;35.028;32.372;2023-01-28T05:31:11;99829.53;;;13.38;84.47
12897;BME280;6516;35.028;32.372;2023-01-28T05:33:39;99820.91;;;13.33;84.85
12897;BME280;6516;35.028;32.372;2023-01-28T05:36:07;99827.50;;;13.46;84.11
12897;BME280;6516;35.028;32.372;2023-01-28T05:38:35;99833.53;;;13.50;83.89
12897;BME280;6516;35.028;32.372;2023-01-28T05:41:03;99830.69;;;13.56;83.81
12897;BME280;6516;35.028;32.372;2023-01-28T05:43:31;99835.88;;;13.59;83.93
12897;BME280;6516;35.028;32.372;2023-01-28T05:45:58;99834.16;;;13.58;84.46
12897;BME280;6516;35.028;32.372;2023-01-28T05:48:28;99842.78;;;13.63;84.54
12897;BME280;6516;35.028;32.372;2023-01-28T05:50:56;99838.09;;;13.71;84.81
12897;BME280;6516;35.028;32.372;2023-01-28T05:53:23;99843.06;;;13.80;85.33
12897;BME280;6516;35.028;32.372;2023-01-28T05:55:52;99840.03;;;13.90;85.53
12897;BME280;6516;35.028;32.372;2023-01-28T05:58:20;99843.09;;;14.03;85.19
12897;BME280;6516;35.028;32.372;2023-01-28T06:00:48;99845.09;;;14.21;85.66
12897;BME280;6516;35.028;32.372;2023-01-28T06:03:16;99851.47;;;14.38;85.15
12897;BME280;6516;35.028;32.372;2023-01-28T06:05:45;99854.66;;;14.48;82.69
12897;BME280;6516;35.028;32.372;2023-01-28T06:08:14;99855.84;;;14.62;81.89
12897;BME280;6516;35.028;32.372;2023-01-28T06:10:41;99850.78;;;14.78;80.81
12897;BME280;6516;35.028;32.372;2023-01-28T06:13:09;99851.91;;;14.94;80.51
12897;BME280;6516;35.028;32.372;2023-01-28T06:15:37;99849.44;;;15.11;79.94
12897;BME280;6516;35.028;32.372;2023-01-28T06:18:05;99862.69;;;15.32;78.62
12897;BME280;6516;35.028;32.372;2023-01-28T06:20:33;99861.06;;;15.50;77.94
12897;BME280;6516;35.028;32.372;2023-01-28T06:23:02;99860.50;;;15.63;77.65
12897;BME280;6516;35.028;32.372;2023-01-28T06:25:30;99850.88;;;15.81;77.88
12897;BME280;6516;35.028;32.372;2023-01-28T06:27:57;99859.69;;;16.01;76.27
12897;BME280;6516;35.028;32.372;2023-01-28T06:30:25;99862.16;;;16.24;76.21
12897;BME280;6516;35.028;32.372;2023-01-28T06:32:53;99867.13;;;16.52;75.76
12897;BME280;6516;35.028;32.372;2023-01-28T06:35:22;99856.78;;;16.83;73.57
12897;BME280;6516;35.028;32.372;2023-01-28T06:37:50;99861.63;;;17.10;72.04
12897;BME280;6516;35.028;32.372;2023-01-28T06:40:20;99857.66;;;17.36;72.13
12897;BME280;6516;35.028;32.372;2023-01-28T06:42:49;99858.97;;;17.63;71.75
12897;BME280;6516;35.028;32.372;2023-01-28T06:45:17;99863.13;;;17.85;70.58
12897;BME280;6516;35.028;32.372;2023-01-28T06:47:45;99864.78;;;18.05;67.52
12897;BME280;6516;35.028;32.372;2023-01-28T06:50:14;99864.03;;;18.18;66.78
12897;BME280;6516;35.028;32.372;2023-01-28T06:52:42;99862.31;;;18.34;66.52
12897;BME280;6516;35.028;32.372;2023-01-28T06:55:10;99861.22;;;18.54;65.82
12897;BME280;6516;35.028;32.372;2023-01-28T06:57:40;99858.94;;;18.79;63.54
12897;BME280;6516;35.028;32.372;2023-01-28T07:00:11;99862.56;;;18.93;62.64
12897;BME280;6516;35.028;32.372;2023-01-28T07:02:41;99862.56;;;19.09;62.06
12897;BME280;6516;35.028;32.372;2023-01-28T07:05:09;99864.00;;;19.30;62.11
12897;BME280;6516;35.028;32.372;2023-01-28T07:07:37;99869.06;;;19.50;62.53
12897;BME280;6516;35.028;32.372;2023-01-28T07:10:06;99870.44;;;19.71;61.21
12897;BME280;6516;35.028;32.372;2023-01-28T07:12:34;99879.63;;;19.81;60.37
12897;BME280;6516;35.028;32.372;2023-01-28T07:15:04;99869.34;;;19.89;59.24
12897;BME280;6516;35.028;32.372;2023-01-28T07:17:33;99871.31;;;20.01;58.48
12897;BME280;6516;35.028;32.372;2023-01-28T07:20:00;99867.16;;;20.25;58.33
12897;BME280;6516;35.028;32.372;2023-01-28T07:22:29;99872.72;;;20.36;57.72
12897;BME280;6516;35.028;32.372;2023-01-28T07:24:57;99864.97;;;20.46;57.57
12897;BME280;6516;35.028;32.372;2023-01-28T07:27:26;99869.66;;;20.56;57.20
12897;BME280;6516;35.028;32.372;2023-01-28T07:29:53;99880.25;;;20.72;56.34
12897;BME280;6516;35.028;32.372;2023-01-28T07:32:23;99870.19;;;20.89;56.16
12897;BME280;6516;35.028;32.372;2023-01-28T07:34:52;99870.50;;;20.99;55.44
12897;BME280;6516;35.028;32.372;2023-01-28T07:37:20;99870.66;;;21.10;55.56
12897;BME280;6516;35.028;32.372;2023-01-28T07:39:47;99869.94;;;21.20;54.10
12897;BME280;6516;35.028;32.372;2023-01-28T07:42:15;99866.66;;;21.29;53.87
12897;BME280;6516;35.028;32.372;2023-01-28T07:44:44;99868.00;;;21.36;53.35
12897;BME280;6516;35.028;32.372;2023-01-28T07:47:12;99862.88;;;21.46;52.64
12897;BME280;6516;35.028;32.372;2023-01-28T07:49:41;99856.81;;;21.69;52.56
12897;BME280;6516;35.028;32.372;2023-01-28T07:52:08;99861.72;;;21.76;52.35
12897;BME280;6516;35.028;32.372;2023-01-28T07:54:36;99856.56;;;21.86;52.35
12897;BME280;6516;35.028;32.372;2023-01-28T07:57:06;99857.13;;;22.03;51.71
12897;BME280;6516;35.028;32.372;2023-01-28T07:59:48;99857.25;;;22.02;51.06
12897;BME280;6516;35.028;32.372;2023-01-28T08:02:16;99853.28;;;22.07;50.66
12897;BME280;6516;35.028;32.372;2023-01-28T08:04:46;99856.41;;;22.26;50.67
12897;BME280;6516;35.028;32.372;2023-01-28T08:07:14;99853.38;;;22.43;49.82
12897;BME280;6516;35.028;32.372;2023-01-28T08:09:43;99848.72;;;22.47;49.35
12897;BME280;6516;35.028;32.372;2023-01-28T08:12:10;99850.31;;;22.49;48.08
12897;BME280;6516;35.028;32.372;2023-01-28T08:14:38;99843.38;;;22.70;48.19
12897;BME280;6516;35.028;32.372;2023-01-28T08:17:06;99840.38;;;22.75;48.92
12897;BME280;6516;35.028;32.372;2023-01-28T08:19:33;99844.56;;;22.79;46.20
12897;BME280;6516;35.028;32.372;2023-01-28T08:22:02;99845.66;;;22.76;46.85
12897;BME280;6516;35.028;32.372;2023-01-28T08:24:30;99839.06;;;22.80;47.47
12897;BME280;6516;35.028;32.372;2023-01-28T08:26:58;99830.66;;;22.97;47.77
12897;BME280;6516;35.028;32.372;2023-01-28T08:29:26;99835.69;;;23.02;47.38
12897;BME280;6516;35.028;32.372;2023-01-28T08:31:53;99824.91;;;23.14;46.09
12897;BME280;6516;35.028;32.372;2023-01-28T08:34:21;99838.31;;;23.27;45.12
12897;BME280;6516;35.028;32.372;2023-01-28T08:36:49;99844.19;;;23.32;42.97
12897;BME280;6516;35.028;32.372;2023-01-28T08:39:18;99834.09;;;23.35;43.05
12897;BME280;6516;35.028;32.372;2023-01-28T08:41:46;99836.53;;;23.38;42.74
12897;BME280;6516;35.028;32.372;2023-01-28T08:44:14;99841.31;;;23.46;42.81
12897;BME280;6516;35.028;32.372;2023-01-28T08:46:42;99833.91;;;23.49;42.28
12897;BME280;6516;35.028;32.372;2023-01-28T08:49:09;99829.66;;;23.58;42.69
12897;BME280;6516;35.028;32.372;2023-01-28T08:51:37;99826.44;;;23.76;41.96
12897;BME280;6516;35.028;32.372;2023-01-28T08:54:05;99816.13;;;23.70;39.88
12897;BME280;6516;35.028;32.372;2023-01-28T08:56:34;99814.97;;;23.85;40.39
12897;BME280;6516;35.028;32.372;2023-01-28T08:59:03;99802.25;;;23.87;39.35
12897;BME280;6516;35.028;32.372;2023-01-28T09:01:31;99802.78;;;23.92;37.97
12897;BME280;6516;35.028;32.372;2023-01-28T09:03:59;99807.81;;;24.08;38.38
12897;BME280;6516;35.028;32.372;2023-01-28T09:06:27;99802.56;;;24.06;39.02
12897;BME280;6516;35.028;32.372;2023-01-28T09:08:55;99808.56;;;24.21;38.57
12897;BME280;6516;35.028;32.372;2023-01-28T09:11:24;99799.06;;;24.28;37.27
12897;BME280;6516;35.028;32.372;2023-01-28T09:13:53;99797.19;;;24.28;38.01
12897;BME280;6516;35.028;32.372;2023-01-28T09:16:22;99792.66;;;24.40;37.47
12897;BME280;6516;35.028;32.372;2023-01-28T09:18:51;99788.03;;;24.53;38.11
12897;BME280;6516;35.028;32.372;2023-01-28T09:21:19;99787.78;;;24.56;38.86
12897;BME280;6516;35.028;32.372;2023-01-28T09:23:47;99787.78;;;24.56;40.04
12897;BME280;6516;35.028;32.372;2023-01-28T09:26:14;99793.66;;;24.83;40.58
12897;BME280;6516;35.028;32.372;2023-01-28T09:28:42;99785.94;;;24.89;40.72
12897;BME280;6516;35.028;32.372;2023-01-28T09:31:11;99782.03;;;24.49;41.58
12897;BME280;6516;35.028;32.372;2023-01-28T09:33:39;99784.25;;;24.44;42.00
12897;BME280;6516;35.028;32.372;2023-01-28T09:36:09;99781.28;;;24.14;43.10
12897;BME280;6516;35.028;32.372;2023-01-28T09:38:37;99772.22;;;24.15;42.70
12897;BME280;6516;35.028;32.372;2023-01-28T09:41:17;99768.34;;;24.30;43.08
12897;BME280;6516;35.028;32.372;2023-01-28T09:44:02;99767.72;;;24.27;44.06
12897;BME280;6516;35.028;32.372;2023-01-28T09:46:36;99752.78;;;24.45;44.27
12897;BME280;6516;35.028;32.372;2023-01-28T09:49:15;99750.09;;;24.56;43.71
12897;BME280;6516;35.028;32.372;2023-01-28T09:51:51;99753.50;;;24.58;43.58
12897;BME280;6516;35.028;32.372;2023-01-28T09:54:27;99753.16;;;24.51;43.05
12897;BME280;6516;35.028;32.372;2023-01-28T09:57:12;99756.72;;;24.63;43.17
12897;BME280;6516;35.028;32.372;2023-01-28T09:59:43;99748.00;;;24.70;42.83
12897;BME280;6516;35.028;32.372;2023-01-28T10:02:39;99746.22;;;24.60;43.01
12897;BME280;6516;35.028;32.372;2023-01-28T10:05:20;99744.34;;;24.60;43.65
12897;BME280;6516;35.028;32.372;2023-01-28T10:07:57;99744.34;;;24.49;43.08
12897;BME280;6516;35.028;32.372;2023-01-28T10:10:36;99745.19;;;24.50;42.25
12897;BME280;6516;35.028;32.372;2023-01-28T10:13:21;99743.97;;;24.54;43.18
12897;BME280;6516;35.028;32.372;2023-01-28T10:16:00;99735.66;;;24.57;42.88
12897;BME280;6516;35.028;32.372;2023-01-28T10:18:47;99721.34;;;24.45;41.66
12897;BME280;6516;35.028;32.372;2023-01-28T10:21:22;99729.19;;;24.26;41.82
12897;BME280;6516;35.028;32.372;2023-01-28T10:23:59;99728.47;;;24.35;41.82
12897;BME280;6516;35.028;32.372;2023-01-28T10:26:33;99726.25;;;24.40;42.19
12897;BME280;6516;35.028;32.372;2023-01-28T10:29:11;99720.59;;;24.54;42.26
12897;BME280;6516;35.028;32.372;2023-01-28T10:31:45;99716.19;;;24.42;40.83
12897;BME280;6516;35.028;32.372;2023-01-28T10:34:19;99713.78;;;24.39;41.62
12897;BME280;6516;35.028;32.372;2023-01-28T10:36:48;99714.00;;;24.25;41.53
12897;BME280;6516;35.028;32.372;2023-01-28T10:39:20;99713.91;;;24.16;41.80
12897;BME280;6516;35.028;32.372;2023-01-28T10:41:49;99706.81;;;24.26;42.59
12897;BME280;6516;35.028;32.372;2023-01-28T10:44:20;99701.44;;;24.04;42.05
12897;BME280;6516;35.028;32.372;2023-01-28T10:46:58;99710.47;;;24.03;42.39
12897;BME280;6516;35.028;32.372;2023-01-28T10:49:31;99703.63;;;23.99;43.18
12897;BME280;6516;35.028;32.372;2023-01-28T10:52:11;99698.63;;;23.94;43.24
12897;BME280;6516;35.028;32.372;2023-01-28T10:54:39;99711.16;;;23.72;44.64
12897;BME280;6516;35.028;32.372;2023-01-28T10:57:11;99713.25;;;23.79;43.88
12897;BME280;6516;35.028;32.372;2023-01-28T10:59:41;99718.47;;;23.59;43.75
12897;BME280;6516;35.028;32.372;2023-01-28T11:02:24;99713.28;;;23.34;44.17
12897;BME280;6516;35.028;32.372;2023-01-28T11:05:03;99711.34;;;23.12;44.61
12897;BME280;6516;35.028;32.372;2023-01-28T11:07:33;99710.16;;;22.93;45.03
12897;BME280;6516;35.028;32.372;2023-01-28T11:10:01;99708.38;;;23.04;45.48
12897;BME280;6516;35.028;32.372;2023-01-28T11:12:29;99709.09;;;23.06;45.74
12897;BME280;6516;35.028;32.372;2023-01-28T11:14:58;99702.63;;;23.21;45.18
12897;BME280;6516;35.028;32.372;2023-01-28T11:17:28;99700.06;;;23.07;44.91
12897;BME280;6516;35.028;32.372;2023-01-28T11:20:08;99709.16;;;22.83;46.16
12897;BME280;6516;35.028;32.372;2023-01-28T11:22:41;99697.88;;;23.01;45.63
12897;BME280;6516;35.028;32.372;2023-01-28T11:25:16;99712.78;;;22.82;46.13
12897;BME280;6516;35.028;32.372;2023-01-28T11:27:47;99717.22;;;23.17;46.05
12897;BME280;6516;35.028;32.372;2023-01-28T11:30:21;99727.09;;;23.17;46.23
12897;BME280;6516;35.028;32.372;2023-01-28T11:32:55;99727.91;;;23.06;46.38
12897;BME280;6516;35.028;32.372;2023-01-28T11:35:28;99729.97;;;23.03;46.80
12897;BME280;6516;35.028;32.372;2023-01-28T11:37:56;99727.22;;;23.15;46.66
12897;BME280;6516;35.028;32.372;2023-01-28T11:40:25;99734.38;;;22.57;47.23
12897;BME280;6516;35.028;32.372;2023-01-28T11:42:53;99729.06;;;22.68;44.30
12897;BME280;6516;35.028;32.372;2023-01-28T11:45:32;99733.00;;;22.98;44.83
12897;BME280;6516;35.028;32.372;2023-01-28T11:48:13;99742.94;;;23.09;44.34
12897;BME280;6516;35.028;32.372;2023-01-28T11:50:56;99733.53;;;23.27;42.24
12897;BME280;6516;35.028;32.372;2023-01-28T11:53:47;99724.94;;;23.22;42.70
12897;BME280;6516;35.028;32.372;2023-01-28T11:56:43;99738.38;;;22.98;44.67
12897;BME280;6516;35.028;32.372;2023-01-28T11:59:29;99738.88;;;22.56;43.72
12897;BME280;6516;35.028;32.372;2023-01-28T12:02:17;99738.53;;;22.61;44.96
12897;BME280;6516;35.028;32.372;2023-01-28T12:05:07;99751.47;;;22.18;42.63
12897;BME280;6516;35.028;32.372;2023-01-28T12:07:49;99751.78;;;22.14;44.22
12897;BME280;6516;35.028;32.372;2023-01-28T12:10:26;99755.66;;;22.22;44.08
12897;BME280;6516;35.028;32.372;2023-01-28T12:13:20;99757.28;;;22.00;47.68
12897;BME280;6516;35.028;32.372;2023-01-28T12:19:20;99758.97;;;21.63;47.81
12897;BME280;6516;35.028;32.372;2023-01-28T12:27:53;99761.25;;;21.82;48.80
12897;BME280;6516;35.028;32.372;2023-01-28T12:30:34;99755.94;;;21.43;45.72
12897;BME280;6516;35.028;32.372;2023-01-28T12:33:48;99761.38;;;21.02;49.45
12897;BME280;6516;35.028;32.372;2023-01-28T12:36:44;99773.09;;;20.33;49.62
12897;BME280;6516;35.028;32.372;2023-01-28T12:39:23;99765.53;;;20.39;50.76
12897;BME280;6516;35.028;32.372;2023-01-28T12:42:04;99764.59;;;20.26;50.86
12897;BME280;6516;35.028;32.372;2023-01-28T12:44:41;99767.00;;;20.17;53.28
12897;BME280;6516;35.028;32.372;2023-01-28T12:47:16;99772.25;;;20.18;53.64
12897;BME280;6516;35.028;32.372;2023-01-28T12:49:50;99766.09;;;20.02;53.90
12897;BME280;6516;35.028;32.372;2023-01-28T12:52:23;99765.47;;;20.13;54.59
12897;BME280;6516;35.028;32.372;2023-01-28T12:54:57;99781.03;;;20.20;54.91
12897;BME280;6516;35.028;32.372;2023-01-28T12:57:31;99773.47;;;19.99;54.50
12897;BME280;6516;35.028;32.372;2023-01-28T13:00:11;99770.34;;;20.20;54.38
12897;BME280;6516;35.028;32.372;2023-01-28T13:02:50;99770.03;;;20.39;54.37
12897;BME280;6516;35.028;32.372;2023-01-28T13:05:27;99779.00;;;20.24;52.44
12897;BME280;6516;35.028;32.372;2023-01-28T13:08:02;99781.81;;;20.22;51.79
12897;BME280;6516;35.028;32.372;2023-01-28T13:10:37;99779.13;;;20.36;51.57
12897;BME280;6516;35.028;32.372;2023-01-28T13:13:14;99786.19;;;20.37;51.96
12897;BME280;6516;35.028;32.372;2023-01-28T13:15:44;99782.63;;;20.51;51.77
12897;BME280;6516;35.028;32.372;2023-01-28T13:18:30;99781.91;;;20.21;51.34
12897;BME280;6516;35.028;32.372;2023-01-28T13:21:01;99784.28;;;20.11;52.07
12897;BME280;6516;35.028;32.372;2023-01-28T13:23:38;99784.09;;;20.28;52.04
12897;BME280;6516;35.028;32.372;2023-01-28T13:26:11;99778.56;;;20.31;52.77
12897;BME280;6516;35.028;32.372;2023-01-28T13:29:08;99769.19;;;20.38;52.89
12897;BME280;6516;35.028;32.372;2023-01-28T13:31:47;99786.53;;;19.89;54.06
12897;BME280;6516;35.028;32.372;2023-01-28T13:34:34;99783.28;;;19.40;55.25
12897;BME280;6516;35.028;32.372;2023-01-28T13:37:06;99782.88;;;19.17;56.66